Latest Weather Observations for Learmonth

IDW60801

Issued at 3:33 pm WST Sunday 15 December 2019 (issued every 10 minutes, with the page automatically refreshed every 10 minutes)

About weather observations | Map of weather stations | Latest weather observations for WA | Other Formats
Station Details ID: 005007 Name: LEARMONTH AIRPORT Lat: -22.24 Lon: 114.10 Height: 5.0 m
Data from the previous 72 hours. | See also: Recent months at Learmonth
Date/Time
WST
Temp
°C
App
Temp
°C
Dew
Point
°C
Rel
Hum
%
Delta-T
°C
Wind Press
QNH
hPa
Press
MSL
hPa
Rain since
9am
mm
Dir  Spd
km/h
Gust
km/h
Spd
kts
Gust
kts
15/03:30pm 33.1 30.7 16.5 37 10.5 WNW 24 35 13 19 1008.0 1007.9 0.0
15/03:00pm 34.7 31.4 16.1 33 11.8 WNW 28 39 15 21 1007.9 1007.8 0.0
15/02:30pm 35.2 31.3 14.5 29 12.8 WNW 28 39 15 21 1008.0 1007.9 0.0
15/02:00pm 35.9 32.0 14.5 27 13.3 WNW 28 37 15 20 1007.9 1007.8 0.0
15/01:30pm 37.0 32.9 13.7 25 14.3 NW 28 43 15 23 1007.9 1007.8 0.0
15/01:00pm 36.2 32.8 14.8 28 13.4 NW 26 35 14 19 1008.1 1008.0 0.0
15/12:30pm 35.9 32.0 14.5 27 13.3 NW 28 39 15 21 1008.2 1008.1 0.0
15/12:00pm 35.4 32.7 13.5 26 13.4 NW 20 32 11 17 1008.4 1008.3 0.0
15/11:30am 33.1 34.0 19.2 43 9.1 NNE 13 24 7 13 1008.8 1008.7 0.0
15/11:00am 31.5 32.4 20.8 53 7.2 NE 17 24 9 13 1009.1 1009.0 0.0
15/10:30am 31.1 31.2 20.4 53 7.1 NE 20 26 11 14 1009.2 1009.1 0.0
15/10:00am 30.6 30.2 19.0 50 7.5 NNE 19 26 10 14 1009.1 1009.0 0.0
15/09:30am 32.4 31.8 17.5 41 9.5 WNW 17 26 9 14 1009.2 1009.1 0.0
15/09:00am 30.5 30.6 19.2 51 7.4 WNW 17 24 9 13 1009.0 1008.9 0.0
15/08:30am 29.1 28.9 19.7 57 6.1 W 20 28 11 15 1009.2 1009.1 0.0
15/08:00am 28.0 29.2 20.6 64 4.9 W 15 22 8 12 1009.3 1009.2 0.0
15/07:30am 26.6 28.3 20.9 71 3.8 WSW 13 19 7 10 1009.4 1009.3 0.0
15/07:00am 25.0 25.8 20.7 77 2.8 W 17 26 9 14 1009.1 1009.0 0.0
15/06:30am 23.1 26.7 20.6 86 1.6 WNW 2 7 1 4 1009.0 1008.9 0.0
15/06:00am 20.4 23.3 18.3 88 1.3 CALM 0 0 0 0 1008.7 1008.6 0.0
15/05:30am 20.2 23.1 18.3 89 1.2 CALM 0 0 0 0 1008.5 1008.4 0.0
15/05:00am 20.5 22.9 18.8 90 1.1 SW 4 11 2 6 1008.4 1008.3 0.0
15/04:30am 20.6 21.7 18.9 90 1.1 SW 11 15 6 8 1008.3 1008.2 0.0
15/04:00am 21.3 22.8 19.0 87 1.5 SSW 9 13 5 7 1008.3 1008.2 0.0
15/03:30am 22.7 23.9 19.9 84 1.8 SW 13 20 7 11 1008.2 1008.1 0.0
15/03:00am 22.3 22.8 20.0 87 1.5 SW 17 20 9 11 1008.1 1008.0 0.0
15/02:30am 22.1 23.6 19.8 87 1.5 WSW 11 15 6 8 1008.1 1008.0 0.0
15/02:00am 22.7 24.0 20.2 86 1.6 WSW 13 17 7 9 1008.4 1008.3 0.0
15/01:30am 23.0 24.3 20.1 84 1.9 W 13 15 7 8 1008.8 1008.7 0.0
15/01:00am 23.4 25.3 20.5 84 1.9 WSW 11 15 6 8 1009.2 1009.1 0.0
15/12:30am 23.8 26.2 20.9 84 1.9 S 9 13 5 7 1010.1 1010.0 0.0
15/12:00am 24.4 26.8 21.5 84 1.9 SSW 11 17 6 9 1010.2 1010.1 0.0
 
Date/Time
WST
Temp
°C
App
Temp
°C
Dew
Point
°C
Rel
Hum
%
Delta-T
°C
Wind Press
QNH
hPa
Press
MSL
hPa
Rain since
9am
mm
Dir  Spd
km/h
Gust
km/h
Spd
kts
Gust
kts
14/11:30pm 24.5 24.6 21.8 85 1.8 ESE 24 41 13 22 1009.9 1009.8 0.0
14/11:00pm 24.5 25.0 21.2 82 2.2 WSW 20 28 11 15 1009.1 1009.0 0.0
14/10:30pm 24.0 25.7 20.9 83 2.0 SW 13 17 7 9 1009.5 1009.4 0.0
14/10:00pm 24.2 25.9 20.9 82 2.2 SSW 13 19 7 10 1009.5 1009.4 0.0
14/09:30pm 24.6 26.1 20.5 78 2.7 SSW 13 17 7 9 1009.3 1009.2 0.0
14/09:00pm 25.6 26.9 20.8 75 3.2 SW 15 20 8 11 1009.4 1009.3 0.0
14/08:30pm 26.1 26.5 20.9 73 3.4 SW 20 26 11 14 1009.1 1009.0 0.0
14/08:00pm 27.0 26.1 20.6 68 4.2 SW 26 32 14 17 1008.8 1008.7 0.0
14/07:30pm 28.5 27.1 19.7 59 5.7 WSW 26 33 14 18 1008.2 1008.1 0.0
14/07:00pm 29.9 27.8 18.0 48 7.6 WSW 26 33 14 18 1007.7 1007.6 0.0
14/06:30pm 32.5 28.6 13.2 31 11.6 WSW 26 33 14 18 1006.9 1006.8 0.0
14/06:00pm 35.2 30.0 10.3 22 14.5 WSW 28 32 15 17 1006.5 1006.4 0.0
14/05:30pm 37.2 30.4 0.5 10 18.5 WSW 26 33 14 18 1006.1 1006.0 0.0
14/05:00pm 38.7 31.1 -5.3 6 20.5 W 26 33 14 18 1006.0 1005.9 0.0
14/04:30pm 39.9 32.7 -2.4 7 20.8 W 26 35 14 19 1005.9 1005.8 0.0
14/04:00pm 39.8 32.6 1.0 9 20.1 W 28 33 15 18 1006.2 1006.1 0.0
14/03:30pm 40.7 34.7 3.1 10 20.1 W 24 32 13 17 1006.4 1006.3 0.0
14/03:00pm 41.1 36.1 3.4 10 20.4 W 19 28 10 15 1006.8 1006.7 0.0
14/02:30pm 37.7 35.5 14.3 25 14.6 NNE 19 24 10 13 1007.2 1007.1 0.0
14/02:00pm 37.0 34.6 14.3 26 14.1 NNE 20 24 11 13 1007.7 1007.6 0.0
14/01:30pm 35.3 33.9 14.6 29 12.8 NNE 15 19 8 10 1008.1 1008.0 0.0
14/01:00pm 34.4 32.9 15.3 31 11.9 NNE 17 22 9 12 1008.6 1008.5 0.0
14/12:30pm 32.4 33.2 21.3 52 7.5 NNE 19 24 10 13 1008.9 1008.8 0.0
14/12:00pm 32.2 33.7 22.0 55 6.9 NNE 17 24 9 13 1009.3 1009.2 0.0
14/11:30am 33.1 34.4 20.9 48 8.2 NNE 15 22 8 12 1009.6 1009.5 0.0
14/11:00am 33.8 34.1 18.7 40 9.9 ENE 15 22 8 12 1009.8 1009.7 0.0
14/10:30am 33.8 34.1 19.5 43 9.4 ENE 17 24 9 13 1010.0 1009.9 0.0
14/10:00am 34.6 34.1 16.0 33 11.7 E 13 17 7 9 1010.0 1009.9 0.0
14/09:30am 30.6 31.4 21.4 58 6.2 E 19 24 10 13 1010.0 1009.9 0.0
14/09:00am 33.0 33.5 18.4 42 9.5 E 13 24 7 13 1010.0 1009.9 0.0
14/08:30am 34.4 35.2 17.2 36 11.0 SSW 9 17 5 9 1009.8 1009.7 0.0
14/08:00am 34.8 31.4 11.2 24 13.9 WSW 20 30 11 16 1009.6 1009.5 0.0
14/07:30am 32.4 28.0 11.6 28 12.2 WSW 26 33 14 18 1009.2 1009.1 0.0
14/07:00am 29.3 27.0 14.7 41 8.9 WSW 20 28 11 15 1009.2 1009.1 0.0
14/06:30am 26.3 25.5 18.4 61 5.0 SW 20 26 11 14 1009.4 1009.3 0.0
14/06:00am 24.8 25.1 19.6 73 3.4 SW 17 22 9 12 1009.4 1009.3 0.0
14/05:30am 24.2 24.3 19.9 77 2.8 SW 19 24 10 13 1009.2 1009.1 0.0
14/05:00am 23.9 24.8 20.0 79 2.5 SW 15 17 8 9 1009.3 1009.2 0.0
14/04:30am 23.2 23.1 17.9 72 3.3 SSW 15 17 8 9 1009.3 1009.2 0.0
14/04:00am 23.8 23.3 17.8 69 3.8 SW 17 22 9 12 1009.5 1009.4 0.0
14/03:30am 24.3 23.3 18.0 68 4.0 SSW 20 28 11 15 1009.7 1009.6 0.0
14/03:00am 25.4 26.4 17.8 62 4.8 SSW 9 13 5 7 1009.4 1009.3 0.0
14/02:30am 26.6 26.1 17.7 58 5.6 SW 17 22 9 12 1009.4 1009.3 0.0
14/02:00am 25.3 25.6 18.7 67 4.2 S 15 20 8 11 1010.1 1010.0 0.0
14/01:30am 25.4 25.4 17.1 60 5.2 SSW 13 15 7 8 1010.3 1010.2 0.0
14/01:00am 25.8 26.4 16.9 58 5.5 S 9 11 5 6 1010.5 1010.4 0.0
14/12:30am 27.5 29.7 16.5 51 6.8 CALM 0 0 0 0 1010.5 1010.4 0.0
14/12:00am 27.5 28.6 17.1 53 6.5 WSW 7 9 4 5 1010.7 1010.6 0.0
 
Date/Time
WST
Temp
°C
App
Temp
°C
Dew
Point
°C
Rel
Hum
%
Delta-T
°C
Wind Press
QNH
hPa
Press
MSL
hPa
Rain since
9am
mm
Dir  Spd
km/h
Gust
km/h
Spd
kts
Gust
kts
13/11:30pm 27.5 28.1 18.5 58 5.7 W 13 15 7 8 1010.9 1010.8 0.0
13/11:00pm 27.0 28.4 18.6 60 5.4 W 9 13 5 7 1011.7 1011.6 0.0
13/10:30pm 26.9 27.9 18.7 60 5.2 WSW 11 15 6 8 1012.2 1012.1 0.0
13/10:00pm 26.8 28.5 18.6 60 5.2 SSW 7 11 4 6 1012.6 1012.5 0.0
13/09:30pm 27.3 27.3 18.9 60 5.4 SE 17 20 9 11 1012.9 1012.8 0.0
13/09:00pm 27.8 27.2 17.6 53 6.4 SSW 17 22 9 12 1011.8 1011.7 0.0
13/08:30pm 28.7 28.5 18.5 54 6.5 S 17 24 9 13 1011.2 1011.1 0.0
13/08:00pm 29.8 29.1 17.3 47 7.9 SSW 17 24 9 13 1010.3 1010.2 0.0
13/07:30pm 30.3 29.2 17.7 46 8.0 WSW 20 28 11 15 1009.2 1009.1 0.0
13/07:00pm 31.6 29.4 16.0 39 9.8 WSW 22 30 12 16 1009.1 1009.0 0.0
13/06:30pm 32.6 30.0 16.0 36 10.4 WSW 24 30 13 16 1009.0 1008.9 0.0
13/06:00pm 33.7 30.6 15.7 34 11.3 W 26 35 14 19 1008.3 1008.2 0.0
13/05:30pm 34.2 30.3 15.6 32 11.6 W 30 39 16 21 1007.5 1007.4 0.0
13/05:00pm 35.2 32.3 17.0 34 11.7 W 28 39 15 21 1007.7 1007.6 0.0
13/04:30pm 36.1 33.3 17.3 33 12.1 W 28 37 15 20 1007.6 1007.5 0.0
13/04:00pm 36.6 34.0 17.7 32 12.3 WNW 28 37 15 20 1007.6 1007.5 0.0
13/03:30pm 37.9 36.1 18.8 32 12.6 WNW 26 33 14 18 1007.8 1007.7 0.0
13/03:00pm 38.2 34.6 14.1 24 15.0 N 26 32 14 17 1008.0 1007.9 0.0
13/02:30pm 37.5 32.3 11.5 21 15.5 N 30 37 16 20 1008.2 1008.1 0.0
13/02:00pm 37.8 33.4 11.7 21 15.7 NNE 26 33 14 18 1008.8 1008.7 0.0
13/01:30pm 37.8 34.0 12.4 22 15.4 NNE 24 30 13 16 1009.3 1009.2 0.0
13/01:00pm 39.3 36.5 11.4 19 16.8 N 17 22 9 12 1009.5 1009.4 0.0
13/12:30pm 38.6 36.7 9.2 17 17.1 NE 9 15 5 8 1009.9 1009.8 0.0
13/12:00pm 37.8 35.8 10.2 19 16.2 NNE 11 19 6 10 1010.4 1010.3 0.0
13/11:30am 36.7 34.5 12.2 23 14.7 NNE 15 20 8 11 1010.9 1010.8 0.0
13/11:00am 36.5 34.9 12.7 24 14.4 ENE 13 17 7 9 1011.2 1011.1 0.0
13/10:30am 35.6 35.6 14.3 28 13.2 E 7 17 4 9 1011.2 1011.1 0.0
13/10:00am 33.6 32.3 17.3 37 10.4 E 20 30 11 16 1011.3 1011.2 0.0
13/09:30am 33.8 33.7 17.9 38 10.3 ESE 15 35 8 19 1011.4 1011.3 0.0
13/09:00am 34.9 33.7 16.2 32 11.8 S 17 24 9 13 1011.2 1011.1 0.0
13/08:30am 33.4 32.5 18.3 40 9.8 S 20 28 11 15 1010.9 1010.8 0.0
13/08:00am 33.0 32.0 18.0 41 9.7 SSW 20 32 11 17 1010.5 1010.4 0.0
13/07:30am 31.0 30.1 17.7 45 8.5 SW 19 26 10 14 1010.4 1010.3 0.0
13/07:00am 29.8 29.2 17.6 48 7.8 SW 17 20 9 11 1010.4 1010.3 0.0
13/06:30am 27.1 29.1 19.2 62 5.1 SW 7 13 4 7 1010.2 1010.1 0.0
13/06:00am 24.0 25.4 19.5 76 2.9 SW 11 13 6 7 1010.0 1009.9 0.0
13/05:30am 23.0 24.8 20.3 85 1.7 SSW 11 15 6 8 1010.0 1009.9 0.0
13/05:00am 23.1 24.2 20.4 85 1.8 S 15 17 8 9 1009.9 1009.8 0.0
13/04:30am 23.1 24.3 18.2 74 3.1 S 9 13 5 7 1009.8 1009.7 0.0
13/04:00am 23.5 24.4 17.5 69 3.7 S 9 15 5 8 1009.6 1009.5 0.0
13/03:30am 24.6 26.4 17.3 64 4.5 SSW 4 7 2 4 1009.3 1009.2 0.0
13/03:00am 24.7 24.6 17.9 66 4.3 WSW 15 19 8 10 1009.3 1009.2 0.0
13/02:30am 24.0 25.8 18.2 70 3.6 WSW 6 9 3 5 1009.8 1009.7 0.0
13/02:00am 24.8 27.2 18.7 69 3.9 NE 4 9 2 5 1010.1 1010.0 0.0
13/01:30am 25.5 26.1 19.4 69 3.9 WSW 15 19 8 10 1010.0 1009.9 0.0
13/01:00am 25.4 26.7 19.3 69 3.9 SW 11 15 6 8 1010.6 1010.5 0.0
13/12:30am 26.0 26.7 18.9 65 4.5 SW 13 17 7 9 1011.0 1010.9 0.0
13/12:00am 26.0 27.5 18.9 65 4.5 WSW 9 13 5 7 1011.4 1011.3 0.0
 
Date/Time
WST
Temp
°C
App
Temp
°C
Dew
Point
°C
Rel
Hum
%
Delta-T
°C
Wind Press
QNH
hPa
Press
MSL
hPa
Rain since
9am
mm
Dir  Spd
km/h
Gust
km/h
Spd
kts
Gust
kts
12/11:30pm 26.2 26.9 18.9 64 4.7 SSE 13 20 7 11 1011.8 1011.7 0.0
12/11:00pm 27.5 26.2 15.8 48 7.2 SW 17 24 9 13 1010.7 1010.6 0.0
12/10:30pm 27.0 24.8 16.9 54 6.3 SW 24 32 13 17 1010.5 1010.4 0.0
12/10:00pm 26.6 25.7 17.7 58 5.6 S 19 24 10 13 1011.1 1011.0 0.0
12/09:30pm 27.6 26.3 16.9 52 6.7 S 19 26 10 14 1011.0 1010.9 0.0
12/09:00pm 28.7 26.5 15.9 45 7.9 SW 22 32 12 17 1010.0 1009.9 0.0
12/08:30pm 29.5 26.9 16.0 44 8.4 SW 24 33 13 18 1009.9 1009.8 0.0
12/08:00pm 30.0 27.9 16.1 43 8.7 SW 22 33 12 18 1009.6 1009.5 0.0
12/07:30pm 30.9 29.0 15.3 38 9.6 WSW 19 37 10 20 1009.2 1009.1 0.0
12/07:00pm 31.4 28.2 15.4 38 9.9 WSW 26 35 14 19 1008.8 1008.7 0.0
12/06:30pm 32.6 28.8 14.7 34 11.0 W 28 39 15 21 1008.6 1008.5 0.0
12/06:00pm 33.5 29.2 14.5 31 11.7 W 30 41 16 22 1008.2 1008.1 0.0
12/05:30pm 35.5 30.8 14.2 28 13.1 W 32 41 17 22 1008.1 1008.0 0.0
12/05:00pm 36.5 32.2 13.3 25 14.2 WNW 28 37 15 20 1008.1 1008.0 0.0
12/04:30pm 38.2 34.5 12.7 21 15.5 WNW 24 32 13 17 1008.2 1008.1 0.0
12/04:00pm 40.1 36.7 11.3 18 17.4 WNW 20 30 11 16 1008.0 1007.9 0.0

Other formats

Comma delimited format used in spreadsheet applications
http://www.bom.gov.au/fwo/IDW60801/IDW60801.94302.axf

JavaScript Object Notation format (JSON) in row-major order
http://www.bom.gov.au/fwo/IDW60801/IDW60801.94302.json

Data quality

Most of these data are generated automatically and are frequently updated. Quality checks on data are not normally performed. It is possible for incorrect values to appear. Refer to information at About Latest Weather Observations and please check the disclaimer before using these data.